createdAt,value
2022-09-21T00:01:16.310Z,99.50
2022-09-21T00:03:43.585Z,99.50
2022-09-21T00:06:13.501Z,99.50
2022-09-21T00:08:40.622Z,99.40
2022-09-21T00:11:08.665Z,99.50
2022-09-21T00:13:37.895Z,99.40
2022-09-21T00:16:09.048Z,99.50
2022-09-21T00:18:36.523Z,99.60
2022-09-21T00:21:12.949Z,99.50
2022-09-21T00:23:40.534Z,99.40
2022-09-21T00:26:13.528Z,99.50
2022-09-21T00:28:40.749Z,99.60
2022-09-21T00:31:12.126Z,99.80
2022-09-21T00:33:40.870Z,99.60
2022-09-21T00:36:12.085Z,99.50
2022-09-21T00:38:39.057Z,99.50
2022-09-21T00:41:07.274Z,99.40
2022-09-21T00:43:35.916Z,99.40
2022-09-21T00:46:12.214Z,99.40
2022-09-21T00:48:39.007Z,99.60
2022-09-21T00:51:08.148Z,99.60
2022-09-21T00:53:37.559Z,99.60
2022-09-21T00:56:06.688Z,99.70
2022-09-21T00:58:42.685Z,99.70
2022-09-21T01:01:12.005Z,99.80
2022-09-21T01:03:39.630Z,99.90
2022-09-21T01:06:06.386Z,99.80
2022-09-21T01:08:35.066Z,99.80
2022-09-21T01:11:15.902Z,99.60
2022-09-21T01:14:15.258Z,99.60
2022-09-21T01:17:11.094Z,99.50
2022-09-21T01:20:20.587Z,99.40
2022-09-21T01:23:16.427Z,99.40
2022-09-21T01:25:59.015Z,99.60
2022-09-21T01:28:57.704Z,99.60
2022-09-21T01:31:31.003Z,99.60
2022-09-21T01:34:05.725Z,99.50
2022-09-21T01:36:34.931Z,99.60
2022-09-21T01:39:12.952Z,99.60
2022-09-21T01:41:42.536Z,99.60
2022-09-21T01:44:17.742Z,99.60
2022-09-21T01:46:47.645Z,99.60
2022-09-21T01:49:27.823Z,99.70
2022-09-21T01:52:02.485Z,99.60
2022-09-21T01:54:39.169Z,99.50
2022-09-21T01:57:14.428Z,99.40
2022-09-21T01:59:52.702Z,99.40
2022-09-21T02:02:58.492Z,99.40
2022-09-21T02:05:28.310Z,99.40
2022-09-21T02:07:55.550Z,99.60
2022-09-21T02:10:39.971Z,99.60
2022-09-21T02:13:08.040Z,99.60
2022-09-21T02:15:40.906Z,99.50
2022-09-21T02:18:33.312Z,99.60
2022-09-21T02:21:04.013Z,99.40
2022-09-21T02:23:45.213Z,99.30
2022-09-21T02:26:17.344Z,99.30
2022-09-21T02:28:51.208Z,99.30
2022-09-21T02:31:31.109Z,99.30
2022-09-21T02:34:34.099Z,99.20
2022-09-21T02:37:33.355Z,99.30
2022-09-21T02:40:22.916Z,99.50
2022-09-21T02:42:55.389Z,99.50
2022-09-21T02:45:26.573Z,99.40
2022-09-21T02:48:14.463Z,99.40
2022-09-21T02:51:03.375Z,99.60
2022-09-21T02:53:36.232Z,99.50
2022-09-21T02:56:07.231Z,99.60
2022-09-21T02:58:38.100Z,99.70
2022-09-21T03:01:07.657Z,99.90
2022-09-21T03:03:34.815Z,99.90
2022-09-21T03:06:02.131Z,99.90
2022-09-21T03:08:30.402Z,99.90
2022-09-21T03:10:57.815Z,99.90
2022-09-21T03:13:24.844Z,99.90
2022-09-21T03:16:02.714Z,99.90
2022-09-21T03:18:30.446Z,99.90
2022-09-21T03:20:57.671Z,99.90
2022-09-21T03:23:24.476Z,99.90
2022-09-21T03:25:54.602Z,99.90
2022-09-21T03:28:21.978Z,99.90
2022-09-21T03:30:50.280Z,99.90
2022-09-21T03:33:18.091Z,99.90
2022-09-21T03:35:45.019Z,99.90
2022-09-21T03:38:12.468Z,99.90
2022-09-21T03:40:39.285Z,99.90
2022-09-21T03:43:05.943Z,99.90
2022-09-21T03:45:32.617Z,99.90
2022-09-21T03:48:01.138Z,99.90
2022-09-21T03:50:29.216Z,99.90
2022-09-21T03:52:56.883Z,99.90
2022-09-21T03:55:24.139Z,99.90
2022-09-21T03:57:50.861Z,99.90
2022-09-21T04:00:18.028Z,99.90
2022-09-21T04:02:44.725Z,99.90
2022-09-21T04:05:17.289Z,99.90
2022-09-21T04:07:47.999Z,99.90
2022-09-21T04:10:17.679Z,99.90
2022-09-21T04:12:45.913Z,99.90
2022-09-21T04:15:19.546Z,99.90
2022-09-21T04:17:47.152Z,99.90
2022-09-21T04:20:13.800Z,99.90
2022-09-21T04:22:43.592Z,99.90
2022-09-21T04:25:12.786Z,99.90
2022-09-21T04:27:39.944Z,99.90
2022-09-21T04:30:07.683Z,99.90
2022-09-21T04:32:34.610Z,99.90
2022-09-21T04:35:01.372Z,99.90
2022-09-21T04:37:28.112Z,99.90
2022-09-21T04:39:54.775Z,99.90
2022-09-21T04:42:21.534Z,99.90
2022-09-21T04:44:48.208Z,99.90
2022-09-21T04:47:15.376Z,99.90
2022-09-21T04:49:42.173Z,99.90
2022-09-21T04:52:08.890Z,99.90
2022-09-21T04:54:35.657Z,99.90
2022-09-21T04:57:02.284Z,99.90
2022-09-21T04:59:28.942Z,99.90
2022-09-21T05:01:55.695Z,99.90
2022-09-21T05:04:22.321Z,99.90
2022-09-21T05:06:49.041Z,99.90
2022-09-21T05:09:34.596Z,99.90
2022-09-21T05:12:02.990Z,99.90
2022-09-21T05:14:29.645Z,99.90
2022-09-21T05:16:56.404Z,99.90
2022-09-21T05:19:23.601Z,99.90
2022-09-21T05:21:50.293Z,99.90
2022-09-21T05:24:17.107Z,99.90
2022-09-21T05:26:43.823Z,99.90
2022-09-21T05:29:10.718Z,99.90
2022-09-21T05:31:58.937Z,99.90
2022-09-21T05:34:57.108Z,99.90
2022-09-21T05:37:51.828Z,99.90
2022-09-21T05:40:19.058Z,99.90
2022-09-21T05:42:46.205Z,99.90
2022-09-21T05:45:18.224Z,99.90
2022-09-21T05:48:28.333Z,99.90
2022-09-21T05:51:03.474Z,99.90
2022-09-21T05:53:30.066Z,99.90
2022-09-21T05:56:04.853Z,99.90
2022-09-21T05:59:01.121Z,99.90
2022-09-21T06:01:27.772Z,99.90
2022-09-21T06:03:55.674Z,99.90
2022-09-21T06:06:22.369Z,99.90
2022-09-21T06:08:49.192Z,99.90
2022-09-21T06:11:16.014Z,99.90
2022-09-21T06:13:43.263Z,99.90
2022-09-21T06:16:10.038Z,99.90
2022-09-21T06:18:40.829Z,99.90
2022-09-21T06:21:08.466Z,99.90
2022-09-21T06:23:35.511Z,99.90
2022-09-21T06:26:02.456Z,99.90
2022-09-21T06:28:29.785Z,99.90
2022-09-21T06:30:58.417Z,99.90
2022-09-21T06:33:25.826Z,99.90
2022-09-21T06:35:54.758Z,99.90
2022-09-21T06:38:21.952Z,99.90
2022-09-21T06:40:48.695Z,99.90
2022-09-21T06:43:15.506Z,99.90
2022-09-21T06:45:42.696Z,99.90
2022-09-21T06:48:09.659Z,99.90
2022-09-21T06:50:36.595Z,99.90
2022-09-21T06:53:04.048Z,99.90
2022-09-21T06:55:31.627Z,99.90
2022-09-21T06:58:05.355Z,99.90
2022-09-21T07:00:32.858Z,99.90
2022-09-21T07:02:59.827Z,99.90
2022-09-21T07:05:26.905Z,99.90
2022-09-21T07:07:59.759Z,99.90
2022-09-21T07:10:26.587Z,99.90
2022-09-21T07:12:53.315Z,99.90
2022-09-21T07:15:21.366Z,99.90
2022-09-21T07:17:52.308Z,99.90
2022-09-21T07:20:19.818Z,99.90
2022-09-21T07:22:46.539Z,99.90
2022-09-21T07:25:14.003Z,99.90
2022-09-21T07:27:40.781Z,99.90
2022-09-21T07:30:08.647Z,99.90
2022-09-21T07:32:36.497Z,99.90
2022-09-21T07:35:03.663Z,99.90
2022-09-21T07:37:31.638Z,99.90
2022-09-21T07:39:58.297Z,99.90
2022-09-21T07:42:26.430Z,99.90
2022-09-21T07:45:03.116Z,99.90
2022-09-21T07:47:31.470Z,99.90
2022-09-21T07:49:58.393Z,99.90
2022-09-21T07:52:25.221Z,99.90
2022-09-21T07:54:51.928Z,99.90
2022-09-21T07:57:37.420Z,99.90
2022-09-21T08:00:05.347Z,99.90
2022-09-21T08:02:32.062Z,99.90
2022-09-21T08:04:58.849Z,99.90
2022-09-21T08:07:26.645Z,99.90
2022-09-21T08:09:53.440Z,99.90
2022-09-21T08:12:20.717Z,99.90
2022-09-21T08:14:48.149Z,99.90
2022-09-21T08:17:15.203Z,99.90
2022-09-21T08:19:41.978Z,99.90
2022-09-21T08:22:08.819Z,99.90
2022-09-21T08:24:35.737Z,99.90
2022-09-21T08:27:02.516Z,99.90
2022-09-21T08:29:30.325Z,99.90
2022-09-21T08:31:57.598Z,99.90
2022-09-21T08:34:24.577Z,99.90
2022-09-21T08:36:55.283Z,99.90
2022-09-21T08:39:22.778Z,99.90
2022-09-21T08:42:08.405Z,99.90
2022-09-21T08:44:43.465Z,99.90
2022-09-21T08:47:16.095Z,99.90
2022-09-21T08:49:49.576Z,99.90
2022-09-21T08:52:19.838Z,99.90
2022-09-21T08:54:53.187Z,99.90
2022-09-21T08:57:20.764Z,99.90
2022-09-21T08:59:49.440Z,99.90
2022-09-21T09:02:51.201Z,99.90
2022-09-21T09:05:45.214Z,99.90
2022-09-21T09:08:26.175Z,99.90
2022-09-21T09:11:01.800Z,99.90
2022-09-21T09:13:37.405Z,99.90
2022-09-21T09:16:07.272Z,99.90
2022-09-21T09:18:51.129Z,99.80
2022-09-21T09:21:45.123Z,99.20
2022-09-21T09:24:33.715Z,99.00
2022-09-21T09:27:15.133Z,98.50
2022-09-21T09:30:03.248Z,98.30
2022-09-21T09:32:47.409Z,98.30
2022-09-21T09:35:44.679Z,98.50
2022-09-21T09:38:39.703Z,97.70
2022-09-21T09:41:18.579Z,97.70
2022-09-21T09:44:13.194Z,97.40
2022-09-21T09:47:23.213Z,97.20
2022-09-21T09:50:13.377Z,96.90
2022-09-21T09:52:41.297Z,96.30
2022-09-21T09:55:30.333Z,95.80
2022-09-21T09:57:58.319Z,95.20
2022-09-21T10:00:25.048Z,94.60
2022-09-21T10:02:58.536Z,94.40
2022-09-21T10:05:38.557Z,94.30
2022-09-21T10:08:05.395Z,94.00
2022-09-21T10:10:37.619Z,93.80
2022-09-21T10:13:07.233Z,94.10
2022-09-21T10:15:34.153Z,93.10
2022-09-21T10:18:11.867Z,92.10
2022-09-21T10:20:38.696Z,92.10
2022-09-21T10:23:05.923Z,92.00
2022-09-21T10:25:34.802Z,91.50
2022-09-21T10:28:06.045Z,91.90
2022-09-21T10:30:36.383Z,92.20
2022-09-21T10:33:03.666Z,92.80
2022-09-21T10:35:30.476Z,92.60
2022-09-21T10:38:27.582Z,92.60
2022-09-21T10:40:55.042Z,91.90
2022-09-21T10:43:25.659Z,92.50
2022-09-21T10:45:57.371Z,92.50
2022-09-21T10:48:26.829Z,92.00
2022-09-21T10:50:54.901Z,91.90
2022-09-21T10:53:30.709Z,92.10
2022-09-21T10:56:15.059Z,92.30
2022-09-21T10:59:20.220Z,92.20
2022-09-21T11:01:49.715Z,92.40
2022-09-21T11:04:49.529Z,92.60
2022-09-21T11:07:37.447Z,93.00
2022-09-21T11:10:16.277Z,92.90
2022-09-21T11:13:20.509Z,93.00
2022-09-21T11:16:11.718Z,92.70
2022-09-21T11:18:53.926Z,92.50
2022-09-21T11:21:34.289Z,92.30
2022-09-21T11:24:31.929Z,91.60
2022-09-21T11:27:11.241Z,91.10
2022-09-21T11:30:07.293Z,90.90
2022-09-21T11:32:53.248Z,90.40
2022-09-21T11:35:27.011Z,88.30
2022-09-21T11:38:02.411Z,89.10
2022-09-21T11:40:39.090Z,89.60
2022-09-21T11:43:26.980Z,89.00
2022-09-21T11:46:06.977Z,87.70
2022-09-21T11:48:56.905Z,85.70
2022-09-21T11:51:26.564Z,83.10
2022-09-21T11:54:13.044Z,84.20
2022-09-21T11:56:57.527Z,84.20
2022-09-21T11:59:43.944Z,82.50
2022-09-21T12:02:45.640Z,83.80
2022-09-21T12:05:33.742Z,84.00
2022-09-21T12:08:24.503Z,84.20
2022-09-21T12:11:30.362Z,82.20
2022-09-21T12:14:22.569Z,81.70
2022-09-21T12:17:40.495Z,80.50
2022-09-21T12:20:26.381Z,78.40
2022-09-21T12:23:03.523Z,78.40
2022-09-21T12:25:38.722Z,77.10
2022-09-21T12:28:13.821Z,75.80
2022-09-21T12:30:45.741Z,75.20
2022-09-21T12:33:34.011Z,75.90
2022-09-21T12:36:10.751Z,72.80
2022-09-21T12:39:20.917Z,73.90
2022-09-21T12:42:19.545Z,71.00
2022-09-21T12:45:00.560Z,71.90
2022-09-21T12:47:58.169Z,72.80
2022-09-21T12:50:36.886Z,70.20
2022-09-21T12:53:04.203Z,71.00
2022-09-21T12:55:30.847Z,71.90
2022-09-21T12:58:22.976Z,73.00
2022-09-21T13:01:09.271Z,72.20
2022-09-21T13:04:03.097Z,72.10
2022-09-21T13:06:35.783Z,70.00
2022-09-21T13:09:07.313Z,70.40
2022-09-21T13:11:51.450Z,68.90
2022-09-21T13:14:18.827Z,66.10
2022-09-21T13:16:58.595Z,66.60
2022-09-21T13:19:29.103Z,63.70
2022-09-21T13:22:19.883Z,63.90
2022-09-21T13:25:03.144Z,64.40
2022-09-21T13:28:09.332Z,65.10
2022-09-21T13:30:42.545Z,63.60
2022-09-21T13:33:30.769Z,64.00
2022-09-21T13:36:00.378Z,62.70
2022-09-21T13:38:34.148Z,62.50
2022-09-21T13:41:04.743Z,62.10
2022-09-21T13:44:08.974Z,61.60
2022-09-21T13:46:35.858Z,60.80
2022-09-21T13:49:15.410Z,61.10
2022-09-21T13:51:57.492Z,59.80
2022-09-21T13:54:28.630Z,60.00
2022-09-21T13:57:32.576Z,59.30
2022-09-21T14:00:28.480Z,59.20
2022-09-21T14:03:04.457Z,60.50
2022-09-21T14:05:43.177Z,60.00
2022-09-21T14:08:16.051Z,59.60
2022-09-21T14:10:53.669Z,58.20
2022-09-21T14:13:32.266Z,59.60
2022-09-21T14:16:34.220Z,59.30
2022-09-21T14:19:02.778Z,59.20
2022-09-21T14:21:29.887Z,59.20
2022-09-21T14:24:22.920Z,58.40
2022-09-21T14:26:58.986Z,58.40
2022-09-21T14:29:27.114Z,59.20
2022-09-21T14:31:57.692Z,58.30
2022-09-21T14:34:31.516Z,58.80
2022-09-21T14:37:02.995Z,58.90
2022-09-21T14:39:34.979Z,59.20
2022-09-21T14:42:12.457Z,58.80
2022-09-21T14:44:42.532Z,59.40
2022-09-21T14:47:36.543Z,58.80
2022-09-21T14:50:18.451Z,58.10
2022-09-21T14:52:59.705Z,58.10
2022-09-21T14:55:35.008Z,57.90
2022-09-21T14:58:11.652Z,57.80
2022-09-21T15:00:42.823Z,57.30
2022-09-21T15:03:27.703Z,58.10
2022-09-21T15:06:24.338Z,58.70
2022-09-21T15:09:37.008Z,58.50
2022-09-21T15:12:19.325Z,58.00
2022-09-21T15:15:05.558Z,58.60
2022-09-21T15:17:32.373Z,58.90
2022-09-21T15:20:03.569Z,57.50
2022-09-21T15:22:31.947Z,57.70
2022-09-21T15:25:03.974Z,57.30
2022-09-21T15:27:33.290Z,57.00
2022-09-21T15:30:04.666Z,57.00
2022-09-21T15:32:41.122Z,57.70
2022-09-21T15:35:18.311Z,57.60
2022-09-21T15:37:48.565Z,57.90
2022-09-21T15:40:21.674Z,58.10
2022-09-21T15:43:11.350Z,58.60
2022-09-21T15:45:58.058Z,59.10
2022-09-21T15:48:42.064Z,59.70
2022-09-21T15:51:15.278Z,60.70
2022-09-21T15:53:52.551Z,59.10
2022-09-21T15:56:22.895Z,58.70
2022-09-21T15:58:50.827Z,58.80
2022-09-21T16:01:21.514Z,59.40
2022-09-21T16:03:51.938Z,59.50
2022-09-21T16:06:21.887Z,60.40
2022-09-21T16:08:49.244Z,59.80
2022-09-21T16:11:37.671Z,60.20
2022-09-21T16:14:33.554Z,61.20
2022-09-21T16:17:12.230Z,61.60
2022-09-21T16:20:11.180Z,62.60
2022-09-21T16:22:39.155Z,63.60
2022-09-21T16:25:30.860Z,64.50
2022-09-21T16:28:02.769Z,65.00
2022-09-21T16:30:53.502Z,65.30
2022-09-21T16:33:41.050Z,65.50
2022-09-21T16:36:20.120Z,65.40
2022-09-21T16:38:55.784Z,64.70
2022-09-21T16:41:27.682Z,65.70
2022-09-21T16:43:58.152Z,65.60
2022-09-21T16:46:26.785Z,66.00
2022-09-21T16:48:55.009Z,66.20
2022-09-21T16:51:25.255Z,66.30
2022-09-21T16:53:52.576Z,66.50
2022-09-21T16:56:19.898Z,66.60
2022-09-21T16:58:47.166Z,67.00
2022-09-21T17:01:20.576Z,67.10
2022-09-21T17:03:48.084Z,68.00
2022-09-21T17:06:20.754Z,68.50
2022-09-21T17:08:49.269Z,69.00
2022-09-21T17:11:20.209Z,69.30
2022-09-21T17:13:47.823Z,69.50
2022-09-21T17:16:18.599Z,70.50
2022-09-21T17:18:46.287Z,71.50
2022-09-21T17:21:13.515Z,71.90
2022-09-21T17:23:41.970Z,72.60
2022-09-21T17:26:19.213Z,73.00
2022-09-21T17:28:46.252Z,72.50
2022-09-21T17:31:14.923Z,73.10
2022-09-21T17:33:42.336Z,73.30
2022-09-21T17:36:13.531Z,74.10
2022-09-21T17:38:40.486Z,74.40
2022-09-21T17:41:16.630Z,74.90
2022-09-21T17:43:53.806Z,75.20
2022-09-21T17:46:46.508Z,76.00
2022-09-21T17:49:13.632Z,76.70
2022-09-21T17:51:59.551Z,77.10
2022-09-21T17:54:26.946Z,78.80
2022-09-21T17:57:05.346Z,79.50
2022-09-21T17:59:34.381Z,79.70
2022-09-21T18:02:02.508Z,80.60
2022-09-21T18:04:33.034Z,80.80
2022-09-21T18:07:00.368Z,81.20
2022-09-21T18:09:27.399Z,81.90
2022-09-21T18:12:13.154Z,82.30
2022-09-21T18:15:23.001Z,83.00
2022-09-21T18:18:31.754Z,83.20
2022-09-21T18:21:05.968Z,83.60
2022-09-21T18:24:07.536Z,83.40
2022-09-21T18:26:34.936Z,83.60
2022-09-21T18:29:22.425Z,84.60
2022-09-21T18:31:57.881Z,84.30
2022-09-21T18:34:54.725Z,85.10
2022-09-21T18:37:36.229Z,85.40
2022-09-21T18:40:36.131Z,85.10
2022-09-21T18:43:34.202Z,85.90
2022-09-21T18:46:10.256Z,86.40
2022-09-21T18:48:54.728Z,86.80
2022-09-21T18:51:52.264Z,86.60
2022-09-21T18:54:27.485Z,86.20
2022-09-21T18:56:55.620Z,86.90
2022-09-21T18:59:23.137Z,87.50
2022-09-21T19:01:50.795Z,87.90
2022-09-21T19:04:20.231Z,88.60
2022-09-21T19:06:56.879Z,88.50
2022-09-21T19:10:01.038Z,88.70
2022-09-21T19:12:53.348Z,88.00
2022-09-21T19:15:58.988Z,88.50
2022-09-21T19:18:41.506Z,88.70
2022-09-21T19:21:39.488Z,89.00
2022-09-21T19:24:14.312Z,89.20
2022-09-21T19:27:12.011Z,89.60
2022-09-21T19:29:43.914Z,89.80
2022-09-21T19:32:31.917Z,90.10
2022-09-21T19:35:01.812Z,90.20
2022-09-21T19:37:28.678Z,90.20
2022-09-21T19:39:55.547Z,90.30
2022-09-21T19:42:34.491Z,90.40
2022-09-21T19:45:07.944Z,90.40
2022-09-21T19:47:52.959Z,90.60
2022-09-21T19:50:36.264Z,90.80
2022-09-21T19:53:24.282Z,90.80
2022-09-21T19:56:10.049Z,91.00
2022-09-21T19:58:55.245Z,91.00
2022-09-21T20:01:22.694Z,91.10
2022-09-21T20:03:50.162Z,91.30
2022-09-21T20:06:27.019Z,91.40
2022-09-21T20:09:17.024Z,91.60
2022-09-21T20:11:54.542Z,91.70
2022-09-21T20:14:35.005Z,91.80
2022-09-21T20:17:10.441Z,91.90
2022-09-21T20:19:58.160Z,92.00
2022-09-21T20:22:38.342Z,92.10
2022-09-21T20:25:42.670Z,92.20
2022-09-21T20:28:11.460Z,92.20
2022-09-21T20:30:39.995Z,92.30
2022-09-21T20:33:14.156Z,92.40
2022-09-21T20:35:42.787Z,92.50
2022-09-21T20:38:10.386Z,92.60
2022-09-21T20:40:38.402Z,92.60
2022-09-21T20:43:05.238Z,92.60
2022-09-21T20:45:33.256Z,92.70
2022-09-21T20:48:13.151Z,92.70
2022-09-21T20:50:46.302Z,92.70
2022-09-21T20:53:13.992Z,92.70
2022-09-21T20:55:41.719Z,92.60
2022-09-21T20:58:12.596Z,92.70
2022-09-21T21:00:39.807Z,92.90
2022-09-21T21:03:06.521Z,92.90
2022-09-21T21:05:34.384Z,93.00
2022-09-21T21:08:03.947Z,93.00
2022-09-21T21:10:31.682Z,93.00
2022-09-21T21:13:01.835Z,93.00
2022-09-21T21:15:29.197Z,93.20
2022-09-21T21:17:56.013Z,93.10
2022-09-21T21:20:22.816Z,93.20
2022-09-21T21:22:50.867Z,93.20
2022-09-21T21:25:18.509Z,93.40
2022-09-21T21:27:45.239Z,93.40
2022-09-21T21:30:12.451Z,93.40
2022-09-21T21:32:39.101Z,93.60
2022-09-21T21:35:06.411Z,93.60
2022-09-21T21:37:33.155Z,93.70
2022-09-21T21:40:00.461Z,93.70
2022-09-21T21:42:29.388Z,93.60
2022-09-21T21:44:56.448Z,93.80
2022-09-21T21:47:40.213Z,93.80
2022-09-21T21:50:08.008Z,94.00
2022-09-21T21:52:34.816Z,93.90
2022-09-21T21:55:02.496Z,94.00
2022-09-21T21:57:29.352Z,94.10
2022-09-21T21:59:56.070Z,94.20
2022-09-21T22:02:23.263Z,94.30
2022-09-21T22:04:50.104Z,94.30
2022-09-21T22:07:16.761Z,94.30
2022-09-21T22:09:43.504Z,94.40
2022-09-21T22:12:11.116Z,94.50
2022-09-21T22:14:38.017Z,94.50
2022-09-21T22:17:04.793Z,94.60
2022-09-21T22:19:31.725Z,94.50
2022-09-21T22:21:58.394Z,94.60
2022-09-21T22:24:26.188Z,94.50
2022-09-21T22:26:52.928Z,94.60
2022-09-21T22:29:19.698Z,94.60
2022-09-21T22:31:48.328Z,94.60
2022-09-21T22:34:15.933Z,94.70
2022-09-21T22:36:45.432Z,94.80
2022-09-21T22:39:12.548Z,94.70
2022-09-21T22:41:41.701Z,94.70
2022-09-21T22:44:09.203Z,94.70
2022-09-21T22:46:36.636Z,94.60
2022-09-21T22:49:03.987Z,94.60
2022-09-21T22:51:30.933Z,94.80
2022-09-21T22:53:58.112Z,94.90
2022-09-21T22:56:27.253Z,94.90
2022-09-21T22:58:56.003Z,94.90
2022-09-21T23:01:27.066Z,95.00
2022-09-21T23:03:57.387Z,95.10
2022-09-21T23:06:29.084Z,95.20
2022-09-21T23:08:57.712Z,95.20
2022-09-21T23:11:30.238Z,95.10
2022-09-21T23:13:58.130Z,95.20
2022-09-21T23:16:27.275Z,95.20
2022-09-21T23:18:54.899Z,95.20
2022-09-21T23:21:24.034Z,95.20
2022-09-21T23:23:54.749Z,95.20
2022-09-21T23:26:24.195Z,95.30
2022-09-21T23:28:56.499Z,95.30
2022-09-21T23:31:24.416Z,95.30
2022-09-21T23:33:53.401Z,95.30
2022-09-21T23:36:23.045Z,95.30
2022-09-21T23:38:51.325Z,95.20
2022-09-21T23:41:29.727Z,95.30
2022-09-21T23:43:57.744Z,95.40
2022-09-21T23:46:27.110Z,95.30
2022-09-21T23:48:54.433Z,95.50
2022-09-21T23:51:21.611Z,95.30
2022-09-21T23:53:48.429Z,95.40
2022-09-21T23:56:17.150Z,95.30
2022-09-21T23:58:44.048Z,95.30
